メインページ
METAR-TAF:

METAR-TAF

空港 :

ノヴォシビルスク, ロシア

トルマチョーヴォ空港

緯度: 55-01N, 経度: 082-38E, 海抜: 111m

現時点の気象観測

当レポートは22分前の06:00(UTC)に作成
南/南西の風 4kt
気温 -17°C
湿度 77%
気圧 1049 hPa
視程10km以上
高度1000ftの雲はほとんどない
高度2500ftの曇り
小雪

METAR: UNNT 140600Z 21002MPS 9999 -SN FEW010 OVC025 M17/M20 Q1049 R25/490150 R34/490345 NOSIG RMK QFE776/1035

時間: 13:22 (06:22 UTC)

予報

当レポートは1時間22分前の05:00(UTC)に作成
予報は14日の 06時(UTC)から 15日の 06時(UTC)まで有効
南/南西の風 6kt
視程10km以上
高度2000ftの千切れ雲あり
小雪
14日の 06時(UTC)から 14日の 14時(UTC)まで一時的に
視程: 3100m
高度1000ftの千切れ雲あり
小雪, 靄
14日の 14時(UTC)から 14日の 15時(UTC)まで徐々に
高度1100ftの千切れ雲あり
14日の 15時(UTC)から 15日の 04時(UTC)まで一時的に
視程: 3100m
高度500ftの千切れ雲あり

TAF: UNNT 140500Z 1406/1506 20003MPS 9999 -SN BKN020 TEMPO 1406/1414 3100 -SN BR BKN010 BECMG 1414/1415 BKN011 TEMPO 1415/1504 3100 BR BKN005

4,000以上の空港の気象観測と天気予報(METAR報とTAF報)

利用可能な観測所は地図上に黄色い丸と赤い丸で示す。

丸の上にカーソルを重ねると観測所名を参照できる。

次にクリックすると気象観測と天気予報を参照できる。

マップの切り替え:黒色「×」印の緑ボタンをクリックして拡大、「-」印の緑ボタンをクリックして縮小、緑色の三角印をクリックして隣りの地図に切り替え


METAR-TAF: